Time;durP1;ratioP1;P1;durP2;ratioP2;P2;SDS_P1;SDS_P2;PMS_P1;PMS_P2;Temp;Humidity;BMP_temperature;BMP_pressure;BME280_temperature;BME280_humidity;BME280_pressure;Samples;Min_cycle;Max_cycle;Signal;HPM_P1;HPM_P2
2021/03/08 00:00:16;;;;;;;32.90;18.17;;;-0.10;99.90;;;;;;5083654;28;20482;-54
2021/03/08 00:02:42;;;;;;;34.97;19.55;;;0.00;99.90;;;;;;5088017;28;20390;-53
2021/03/08 00:05:10;;;;;;;35.47;18.15;;;2.40;99.90;;;;;;5088380;28;20500;-53
2021/03/08 00:07:36;;;;;;;35.07;18.87;;;0.00;99.90;;;;;;5089005;28;20394;-53
2021/03/08 00:10:04;;;;;;;33.43;18.70;;;-0.10;99.90;;;;;;5087239;28;20989;-53
2021/03/08 00:12:30;;;;;;;31.40;18.10;;;-0.10;99.90;;;;;;5085437;28;20892;-53
2021/03/08 00:14:55;;;;;;;34.03;19.60;;;-0.20;99.90;;;;;;5074555;28;20414;-54
2021/03/08 00:17:21;;;;;;;33.60;18.90;;;-0.30;99.90;;;;;;5083235;28;20421;-53
2021/03/08 00:19:47;;;;;;;33.10;18.75;;;-0.40;99.90;;;;;;5085318;28;20390;-53
2021/03/08 00:22:12;;;;;;;30.83;18.27;;;-0.40;99.90;;;;;;5080738;28;20366;-53
2021/03/08 00:24:38;;;;;;;30.57;17.70;;;-0.30;99.90;;;;;;5089582;28;20389;-53
2021/03/08 00:27:04;;;;;;;32.53;18.87;;;-0.40;99.90;;;;;;5087468;28;20405;-54
2021/03/08 00:29:30;;;;;;;33.55;19.65;;;-0.50;99.90;;;;;;5082779;28;20871;-54
2021/03/08 00:31:55;;;;;;;31.17;17.90;;;-0.40;99.90;;;;;;5077851;28;20721;-54
2021/03/08 00:34:21;;;;;;;33.92;18.48;;;-0.40;99.90;;;;;;5090615;28;20382;-53
2021/03/08 00:36:47;;;;;;;32.97;18.80;;;-0.50;99.90;;;;;;5091261;28;20422;-53
2021/03/08 00:39:13;;;;;;;33.03;18.87;;;-0.60;99.90;;;;;;5092827;28;20385;-53
2021/03/08 00:41:38;;;;;;;35.37;18.23;;;-0.60;99.90;;;;;;5092046;28;20397;-53
2021/03/08 00:44:04;;;;;;;30.48;17.42;;;-0.60;99.90;;;;;;5092411;28;20385;-54
2021/03/08 00:46:30;;;;;;;31.90;18.17;;;-0.60;99.90;;;;;;5091408;28;20440;-53
2021/03/08 00:48:55;;;;;;;30.77;17.70;;;-0.60;99.90;;;;;;5087759;28;20417;-53
2021/03/08 00:51:21;;;;;;;28.67;17.00;;;-0.50;99.90;;;;;;5074110;28;20390;-54
2021/03/08 00:53:47;;;;;;;27.58;17.02;;;-0.50;99.90;;;;;;5092165;28;20393;-54
2021/03/08 00:56:13;;;;;;;29.75;17.55;;;-0.50;99.90;;;;;;5092800;28;20905;-54
2021/03/08 00:58:38;;;;;;;34.47;19.47;;;-0.60;99.90;;;;;;5088526;28;20420;-54
2021/03/08 01:01:04;;;;;;;33.00;18.30;;;-0.60;99.90;;;;;;5091195;28;20408;-54
2021/03/08 01:03:29;;;;;;;31.77;17.67;;;-0.60;99.90;;;;;;5080597;28;20405;-54
2021/03/08 01:05:55;;;;;;;32.87;17.77;;;-0.70;99.90;;;;;;5075485;28;20384;-54
2021/03/08 01:08:21;;;;;;;27.07;16.80;;;0.00;99.90;;;;;;5076430;28;20402;-54
2021/03/08 01:10:46;;;;;;;34.67;18.52;;;-0.70;99.90;;;;;;5092361;28;20426;-54
2021/03/08 01:13:12;;;;;;;30.90;17.27;;;-0.80;99.90;;;;;;5090785;28;20492;-54
2021/03/08 01:15:38;;;;;;;32.03;17.05;;;-0.70;99.90;;;;;;5090969;28;20789;-54
2021/03/08 01:18:04;;;;;;;28.40;15.83;;;1.60;99.90;;;;;;5080930;28;20407;-54
2021/03/08 01:20:29;;;;;;;28.83;17.40;;;-0.80;99.90;;;;;;5086174;28;20420;-54
2021/03/08 01:22:55;;;;;;;29.92;17.15;;;-0.80;99.90;;;;;;5088744;28;20406;-54
2021/03/08 01:25:28;;;;;;;30.30;16.92;;;-0.90;99.90;;;;;;5092176;28;20495;-54
2021/03/08 01:27:55;;;;;;;30.77;16.23;;;-0.90;99.90;;;;;;5086301;28;20406;-53
2021/03/08 01:30:23;;;;;;;32.50;18.48;;;-0.80;99.90;;;;;;5081012;28;20931;-54
2021/03/08 01:32:49;;;;;;;30.00;17.52;;;-0.80;99.90;;;;;;5072764;28;20893;-53
2021/03/08 01:35:16;;;;;;;31.10;17.00;;;-0.80;99.90;;;;;;5089313;28;20478;-54
2021/03/08 01:37:41;;;;;;;28.20;16.92;;;1.20;99.90;;;;;;5082403;28;20483;-54
2021/03/08 01:40:09;;;;;;;28.75;16.88;;;1.40;99.90;;;;;;5081955;28;21306;-54
2021/03/08 01:42:36;;;;;;;28.30;16.77;;;-1.00;99.90;;;;;;5084956;28;20883;-53
2021/03/08 01:45:04;;;;;;;28.42;16.85;;;-0.90;99.90;;;;;;5085438;28;20394;-54
2021/03/08 01:47:30;;;;;;;30.88;18.05;;;-0.90;99.90;;;;;;5089290;28;20404;-53
2021/03/08 01:49:55;;;;;;;28.27;16.87;;;0.90;99.90;;;;;;5087210;28;20402;-53
2021/03/08 01:52:21;;;;;;;28.27;17.35;;;-1.00;99.90;;;;;;5091006;28;20435;-54
2021/03/08 01:54:47;;;;;;;30.77;17.08;;;-1.00;99.90;;;;;;5072852;28;20743;-53
2021/03/08 01:57:13;;;;;;;30.13;17.00;;;-1.00;99.90;;;;;;5069529;28;20422;-54
2021/03/08 01:59:39;;;;;;;31.30;17.23;;;-0.90;99.90;;;;;;5081689;28;20437;-54
2021/03/08 02:02:05;;;;;;;25.52;15.68;;;-0.90;99.90;;;;;;5090202;28;20422;-54
2021/03/08 02:04:31;;;;;;;30.65;15.70;;;-0.80;99.90;;;;;;5084098;28;20413;-53
2021/03/08 02:06:57;;;;;;;26.93;15.27;;;-0.70;99.90;;;;;;5087087;28;20390;-54
2021/03/08 02:09:23;;;;;;;25.40;15.87;;;-0.70;99.90;;;;;;5086746;28;20390;-54
2021/03/08 02:12:13;;;;;;;29.20;16.13;;;-0.60;99.90;;;;;;5091789;28;20783;-54
2021/03/08 02:14:39;;;;;;;25.13;15.68;;;-0.70;99.90;;;;;;5078674;28;20388;-53
2021/03/08 02:17:12;;;;;;;27.48;15.88;;;-0.60;99.90;;;;;;5085873;28;20997;-54
2021/03/08 02:20:03;;;;;;;28.73;16.40;;;-0.70;99.90;;;;;;5081141;28;20368;-54
2021/03/08 02:22:47;;;;;;;28.13;16.43;;;-0.70;99.90;;;;;;5078110;28;20527;-54
2021/03/08 02:25:31;;;;;;;29.67;15.50;;;-0.60;99.90;;;;;;5090558;28;20886;-54
2021/03/08 02:28:33;;;;;;;24.30;15.77;;;-0.70;99.90;;;;;;5086996;28;20405;-54
2021/03/08 02:31:04;;;;;;;28.27;15.50;;;-0.70;99.90;;;;;;5073841;28;20376;-54
2021/03/08 02:33:32;;;;;;;27.83;15.80;;;-0.50;99.90;;;;;;5089751;28;20384;-54
2021/03/08 02:36:03;;;;;;;26.80;15.07;;;-0.90;99.90;;;;;;5090036;28;20389;-54
2021/03/08 02:38:59;;;;;;;28.25;15.60;;;-0.90;99.90;;;;;;5076365;28;20459;-53
2021/03/08 02:41:26;;;;;;;29.83;16.60;;;-0.90;99.90;;;;;;5088919;28;20551;-54
2021/03/08 02:43:57;;;;;;;28.80;16.10;;;-0.90;99.90;;;;;;5071574;28;20387;-54
2021/03/08 02:46:27;;;;;;;29.40;15.93;;;-1.00;99.90;;;;;;5086638;28;20855;-54
2021/03/08 02:48:57;;;;;;;26.60;15.45;;;-1.00;99.90;;;;;;5084149;28;20384;-54
2021/03/08 02:51:26;;;;;;;28.27;16.20;;;-1.00;99.90;;;;;;5065098;28;20832;-53
2021/03/08 02:53:54;;;;;;;28.97;16.23;;;-1.10;99.90;;;;;;5078296;28;20398;-53
2021/03/08 02:56:23;;;;;;;29.33;15.50;;;-1.20;99.90;;;;;;5079380;28;20505;-54
2021/03/08 02:58:50;;;;;;;27.67;16.00;;;-1.20;99.90;;;;;;5086089;28;20449;-54
2021/03/08 03:01:20;;;;;;;29.02;15.63;;;-1.30;99.90;;;;;;5081478;28;20859;-53
2021/03/08 03:03:51;;;;;;;26.35;14.98;;;-1.40;99.90;;;;;;5082152;28;20389;-53
2021/03/08 03:06:19;;;;;;;29.80;16.17;;;-1.40;99.90;;;;;;5089426;28;20744;-53
2021/03/08 03:08:47;;;;;;;27.35;15.90;;;-1.40;99.90;;;;;;5078366;28;20394;-54
2021/03/08 03:11:13;;;;;;;28.35;15.38;;;-1.40;99.90;;;;;;5086732;28;20400;-53
2021/03/08 03:13:42;;;;;;;27.05;16.00;;;-1.40;99.90;;;;;;5090227;28;20388;-53
2021/03/08 03:16:10;;;;;;;31.00;16.15;;;-1.40;99.90;;;;;;5085395;28;20495;-54
2021/03/08 03:18:37;;;;;;;25.73;15.10;;;-1.50;99.90;;;;;;5086709;28;20469;-54
2021/03/08 03:21:06;;;;;;;28.70;15.77;;;-1.60;99.90;;;;;;5080986;28;20387;-53
2021/03/08 03:23:36;;;;;;;26.65;15.35;;;-1.50;99.90;;;;;;5088903;28;20390;-54
2021/03/08 03:26:05;;;;;;;24.87;15.20;;;0.70;99.90;;;;;;5085061;28;20465;-54
2021/03/08 03:28:31;;;;;;;28.48;15.88;;;-1.60;99.90;;;;;;5070740;28;20387;-54
2021/03/08 03:30:58;;;;;;;28.42;15.23;;;-1.70;99.90;;;;;;5082187;28;20457;-54
2021/03/08 03:33:26;;;;;;;28.38;16.00;;;-1.70;99.90;;;;;;5086383;28;20432;-54
2021/03/08 03:35:52;;;;;;;29.58;16.48;;;-1.70;99.90;;;;;;5073457;28;20382;-54
2021/03/08 03:38:20;;;;;;;27.17;15.73;;;-1.60;99.90;;;;;;5082262;28;20372;-53
2021/03/08 03:40:49;;;;;;;28.00;15.83;;;-1.70;99.90;;;;;;5072235;28;20399;-54
2021/03/08 03:43:15;;;;;;;28.00;15.95;;;-1.80;99.90;;;;;;5089288;28;20412;-54
2021/03/08 03:45:40;;;;;;;31.80;16.77;;;-1.80;99.90;;;;;;5084237;28;20444;-54
2021/03/08 03:48:07;;;;;;;30.05;16.45;;;-0.50;99.90;;;;;;5068732;28;20386;-54
2021/03/08 03:50:33;;;;;;;30.13;17.02;;;-1.90;99.90;;;;;;5082936;28;20405;-54
2021/03/08 03:52:59;;;;;;;29.52;16.70;;;-1.90;99.90;;;;;;5072282;28;20410;-54
2021/03/08 03:55:25;;;;;;;30.07;16.97;;;-2.00;99.90;;;;;;5090095;28;20390;-54
2021/03/08 03:58:17;;;;;;;29.42;16.13;;;-2.10;99.90;;;;;;5089776;28;20422;-53
2021/03/08 04:01:03;;;;;;;29.08;16.40;;;-2.10;99.90;;;;;;5071669;28;20387;-54
2021/03/08 04:03:57;;;;;;;30.33;16.35;;;-2.10;99.90;;;;;;5081845;28;20372;-54
2021/03/08 04:06:34;;;;;;;29.00;16.33;;;-2.00;99.90;;;;;;5085360;28;20381;-54
2021/03/08 04:09:01;;;;;;;28.10;16.42;;;-2.00;99.90;;;;;;5072977;28;20389;-53
2021/03/08 04:11:33;;;;;;;26.58;16.13;;;-2.10;99.90;;;;;;5090259;28;20367;-54
2021/03/08 04:14:01;;;;;;;26.63;16.65;;;-2.20;99.90;;;;;;5089248;28;20856;-54
2021/03/08 04:16:30;;;;;;;31.60;16.80;;;-1.30;99.90;;;;;;5072815;28;20395;-54
2021/03/08 04:18:58;;;;;;;26.40;15.73;;;-2.10;99.90;;;;;;5065613;28;20395;-54
2021/03/08 04:21:24;;;;;;;29.85;16.27;;;-2.10;99.90;;;;;;5060880;28;20878;-54
2021/03/08 04:23:50;;;;;;;29.98;16.70;;;-2.10;99.90;;;;;;5076646;28;20433;-54
2021/03/08 04:26:18;;;;;;;27.67;16.48;;;-0.20;99.90;;;;;;5083839;28;20476;-53
2021/03/08 04:28:45;;;;;;;28.50;16.42;;;-2.00;99.90;;;;;;5089807;28;20386;-53
2021/03/08 04:31:12;;;;;;;28.52;16.67;;;-2.10;99.90;;;;;;5085207;28;20414;-54
2021/03/08 04:33:38;;;;;;;28.25;16.20;;;-2.10;99.90;;;;;;5075397;28;20463;-54
2021/03/08 04:36:05;;;;;;;26.65;15.43;;;-2.10;99.90;;;;;;5084547;28;20477;-57
2021/03/08 04:38:32;;;;;;;28.65;16.17;;;-2.10;99.90;;;;;;5074342;28;20396;-53
2021/03/08 04:40:58;;;;;;;27.15;15.82;;;-0.90;99.90;;;;;;5087389;28;20394;-53
2021/03/08 04:43:24;;;;;;;28.50;16.40;;;-2.10;99.90;;;;;;5089816;28;20839;-53
2021/03/08 04:45:54;;;;;;;29.05;16.90;;;-2.00;99.90;;;;;;5084765;28;20375;-54
2021/03/08 04:48:21;;;;;;;28.50;17.20;;;-2.00;99.90;;;;;;5078332;28;20389;-54
2021/03/08 04:50:49;;;;;;;28.30;16.98;;;-2.10;99.90;;;;;;5080006;28;20390;-53
2021/03/08 04:53:16;;;;;;;29.00;15.93;;;-2.10;99.90;;;;;;5072211;28;20380;-53
2021/03/08 04:55:43;;;;;;;30.70;16.55;;;-2.10;99.90;;;;;;5068422;28;20745;-53
2021/03/08 04:58:09;;;;;;;27.50;16.27;;;-1.30;99.90;;;;;;5080571;28;20505;-53
2021/03/08 05:00:35;;;;;;;26.70;15.90;;;-2.00;99.90;;;;;;5089143;28;20871;-54
2021/03/08 05:03:03;;;;;;;30.43;16.73;;;-2.00;99.90;;;;;;5071870;28;20375;-53
2021/03/08 05:05:30;;;;;;;31.55;15.38;;;-2.10;99.90;;;;;;5084854;28;20380;-53
2021/03/08 05:08:01;;;;;;;27.53;15.80;;;-2.20;99.90;;;;;;5058051;28;20405;-54
2021/03/08 05:10:28;;;;;;;32.20;16.23;;;-2.20;99.90;;;;;;5069016;28;20395;-53
2021/03/08 05:12:57;;;;;;;27.60;16.33;;;-2.20;99.90;;;;;;5068382;28;20383;-53
2021/03/08 05:15:25;;;;;;;28.77;16.60;;;-2.20;99.90;;;;;;5069047;28;20379;-53
2021/03/08 05:17:54;;;;;;;28.25;16.23;;;-2.20;99.90;;;;;;5069312;28;20749;-53
2021/03/08 05:20:21;;;;;;;28.88;15.80;;;-2.30;99.90;;;;;;5069990;28;20451;-53
2021/03/08 05:22:48;;;;;;;31.98;16.30;;;-2.30;99.90;;;;;;5072745;28;20407;-53
2021/03/08 05:25:14;;;;;;;24.67;15.32;;;-0.10;99.90;;;;;;5071781;28;20392;-53
2021/03/08 05:27:40;;;;;;;27.88;15.73;;;-2.20;99.90;;;;;;5072771;28;20392;-53
2021/03/08 05:30:08;;;;;;;25.90;15.52;;;-2.10;99.90;;;;;;5071482;28;20829;-53
2021/03/08 05:32:42;;;;;;;28.70;15.77;;;-2.10;99.90;;;;;;5086128;28;20551;-53
2021/03/08 05:35:10;;;;;;;29.40;17.20;;;-2.20;99.90;;;;;;5081376;28;20381;-53
2021/03/08 05:37:39;;;;;;;33.67;17.70;;;-2.10;99.90;;;;;;5080103;28;20414;-53
2021/03/08 05:40:31;;;;;;;26.63;15.75;;;-2.10;99.90;;;;;;5088226;28;20894;-53
2021/03/08 05:43:06;;;;;;;28.77;16.20;;;-2.20;99.90;;;;;;5052865;28;20433;-53
2021/03/08 05:45:38;;;;;;;29.00;17.15;;;-2.20;99.90;;;;;;5081661;28;20541;-53
2021/03/08 05:48:35;;;;;;;28.10;15.38;;;-2.20;99.90;;;;;;5087040;28;20390;-53
2021/03/08 05:51:17;;;;;;;27.50;16.37;;;-2.20;99.90;;;;;;5078018;28;20392;-53
2021/03/08 05:54:00;;;;;;;31.40;16.67;;;-2.20;99.90;;;;;;5086246;28;20408;-53
2021/03/08 05:56:34;;;;;;;27.23;15.18;;;-2.20;99.90;;;;;;5082904;28;20480;-53
2021/03/08 05:59:13;;;;;;;27.08;15.45;;;-2.20;99.90;;;;;;5085032;28;20482;-53
2021/03/08 06:02:06;;;;;;;39.30;18.60;;;-2.20;99.90;;;;;;5081911;28;20382;-53
2021/03/08 06:04:43;;;;;;;36.13;18.60;;;-2.20;99.90;;;;;;5088420;28;20511;-53
2021/03/08 06:07:36;;;;;;;31.23;17.40;;;-2.10;99.90;;;;;;5083093;28;20915;-53
2021/03/08 06:10:09;;;;;;;31.77;16.00;;;-2.10;99.90;;;;;;5083090;28;21185;-53
2021/03/08 06:12:36;;;;;;;30.05;16.02;;;-2.10;99.90;;;;;;5086563;28;20894;-53
2021/03/08 06:15:15;;;;;;;33.28;17.27;;;-2.00;99.90;;;;;;5081663;28;20482;-53
2021/03/08 06:17:40;;;;;;;27.38;16.17;;;-1.90;99.90;;;;;;5089087;28;20429;-56
2021/03/08 06:20:07;;;;;;;28.20;15.17;;;0.40;99.90;;;;;;5083695;28;20382;-53
2021/03/08 06:22:34;;;;;;;32.15;16.60;;;-1.60;99.90;;;;;;5081533;28;20538;-53
2021/03/08 06:25:01;;;;;;;28.35;15.00;;;-1.40;99.90;;;;;;5083295;28;20446;-53
2021/03/08 06:27:28;;;;;;;23.13;14.68;;;-0.90;99.90;;;;;;5077266;28;20387;-53
2021/03/08 06:29:54;;;;;;;25.23;14.02;;;-0.10;99.90;;;;;;5082807;28;20432;-54
2021/03/08 06:32:20;;;;;;;22.63;13.50;;;0.90;99.90;;;;;;5091919;28;20401;-54
2021/03/08 06:34:46;;;;;;;22.45;13.02;;;1.80;99.90;;;;;;5091460;28;20389;-54
2021/03/08 06:37:13;;;;;;;20.80;12.38;;;2.60;99.90;;;;;;5089487;28;20410;-54
2021/03/08 06:39:41;;;;;;;22.23;13.23;;;3.00;99.90;;;;;;5091581;28;20374;-54
2021/03/08 06:42:08;;;;;;;23.50;12.45;;;4.10;99.90;;;;;;5089501;28;20398;-54
2021/03/08 06:44:34;;;;;;;21.00;13.00;;;3.80;99.90;;;;;;5091153;28;20599;-54
2021/03/08 06:47:00;;;;;;;23.20;13.10;;;4.10;99.90;;;;;;5089066;28;20397;-55
2021/03/08 06:49:26;;;;;;;23.70;13.48;;;4.40;99.90;;;;;;5088626;28;20887;-55
2021/03/08 06:52:01;;;;;;;23.87;13.73;;;4.50;99.90;;;;;;5090509;28;20382;-55
2021/03/08 06:54:27;;;;;;;21.27;14.50;;;4.60;99.90;;;;;;5082133;28;20406;-54
2021/03/08 06:56:52;;;;;;;23.17;14.27;;;4.80;99.90;;;;;;5081320;28;20426;-52
2021/03/08 06:59:18;;;;;;;25.98;13.50;;;5.20;99.90;;;;;;5061742;28;21046;-53
2021/03/08 07:01:45;;;;;;;24.10;14.88;;;5.20;99.50;;;;;;5074224;28;21455;-53
2021/03/08 07:04:12;;;;;;;21.05;13.55;;;5.40;99.30;;;;;;5053072;28;21022;-53
2021/03/08 07:06:37;;;;;;;20.52;13.30;;;5.90;99.30;;;;;;5082122;28;20406;-54
2021/03/08 07:09:14;;;;;;;23.23;13.88;;;6.30;98.60;;;;;;5084363;28;20484;-54
2021/03/08 07:11:39;;;;;;;22.20;13.70;;;7.30;96.40;;;;;;5076084;28;20505;-54
2021/03/08 07:14:18;;;;;;;23.67;15.40;;;7.90;93.60;;;;;;5082793;28;20926;-54
2021/03/08 07:16:44;;;;;;;25.45;15.10;;;8.80;91.70;;;;;;5086750;28;20410;-53
2021/03/08 07:19:10;;;;;;;25.77;15.13;;;8.50;90.20;;;;;;5085505;28;20472;-54
2021/03/08 07:21:37;;;;;;;21.75;14.55;;;8.90;89.40;;;;;;5083051;28;20418;-55
2021/03/08 07:24:15;;;;;;;19.33;14.38;;;9.70;83.80;;;;;;5083741;28;20382;-54
2021/03/08 07:26:52;;;;;;;22.30;14.73;;;10.00;80.10;;;;;;5083643;28;20526;-59
2021/03/08 07:29:20;;;;;;;20.40;13.73;;;9.90;77.50;;;;;;5082751;28;20410;-54
2021/03/08 07:31:48;;;;;;;23.17;15.00;;;9.50;77.90;;;;;;5082436;28;20381;-53
2021/03/08 07:34:15;;;;;;;23.42;14.38;;;9.40;80.70;;;;;;5080410;28;20406;-54
2021/03/08 07:36:43;;;;;;;22.15;15.07;;;10.00;75.40;;;;;;5087398;28;20501;-55
2021/03/08 07:39:16;;;;;;;23.48;15.70;;;10.30;73.50;;;;;;5083622;28;20440;-55
2021/03/08 07:42:04;;;;;;;21.95;14.55;;;10.20;71.80;;;;;;5085052;28;20394;-55
2021/03/08 07:44:31;;;;;;;19.83;14.52;;;10.00;72.30;;;;;;5077131;28;20462;-55
2021/03/08 07:46:58;;;;;;;21.92;14.70;;;9.80;74.60;;;;;;5075877;28;21343;-54
2021/03/08 07:49:36;;;;;;;22.20;15.30;;;10.70;72.50;;;;;;5084635;28;20385;-55
2021/03/08 07:52:10;;;;;;;22.75;15.45;;;11.40;67.40;;;;;;5086530;28;20398;-55
2021/03/08 07:54:59;;;;;;;20.70;15.00;;;11.60;67.20;;;;;;5075615;28;20408;-54
2021/03/08 07:57:27;;;;;;;21.77;15.88;;;12.50;64.80;;;;;;5086671;28;20402;-55
2021/03/08 07:59:53;;;;;;;21.60;14.90;;;13.00;60.90;;;;;;5083392;28;20713;-55
2021/03/08 08:02:20;;;;;;;21.73;15.40;;;13.60;58.80;;;;;;5084503;28;20884;-54
2021/03/08 08:04:46;;;;;;;20.02;14.98;;;14.10;55.60;;;;;;5083044;28;20421;-54
2021/03/08 08:07:14;;;;;;;21.90;15.85;;;13.90;55.80;;;;;;5077772;28;20388;-55
2021/03/08 08:09:45;;;;;;;20.25;15.13;;;13.30;56.00;;;;;;5086056;28;20523;-54
2021/03/08 08:12:14;;;;;;;21.38;15.18;;;13.70;55.60;;;;;;5070815;28;20430;-55
2021/03/08 08:14:43;;;;;;;20.02;14.13;;;13.20;55.50;;;;;;5087341;28;20420;-54
2021/03/08 08:17:16;;;;;;;19.60;14.27;;;12.80;56.30;;;;;;5086225;28;20418;-55
2021/03/08 08:19:46;;;;;;;18.67;14.30;;;12.90;55.80;;;;;;5082451;28;20759;-54
2021/03/08 08:22:23;;;;;;;21.33;14.57;;;12.80;55.70;;;;;;5083783;28;20374;-55
2021/03/08 08:24:52;;;;;;;20.35;14.70;;;12.80;55.90;;;;;;5081008;28;20484;-55
2021/03/08 08:27:19;;;;;;;20.65;14.40;;;11.90;56.80;;;;;;5076216;28;20391;-54
2021/03/08 08:29:46;;;;;;;19.58;14.48;;;12.10;58.10;;;;;;5058584;28;20394;-54
2021/03/08 08:32:12;;;;;;;18.98;13.85;;;12.50;57.10;;;;;;5084383;28;20397;-54
2021/03/08 08:34:39;;;;;;;19.40;13.20;;;12.90;56.80;;;;;;5079650;28;20403;-55
2021/03/08 08:37:14;;;;;;;21.60;14.10;;;12.90;57.00;;;;;;5078500;28;20435;-54
2021/03/08 08:39:42;;;;;;;18.85;14.77;;;13.20;56.80;;;;;;5082553;28;20390;-54
2021/03/08 08:42:29;;;;;;;21.50;14.73;;;13.60;55.20;;;;;;5081777;28;20431;-55
2021/03/08 08:44:59;;;;;;;21.33;14.85;;;14.30;54.00;;;;;;5075375;28;20405;-55
2021/03/08 08:47:31;;;;;;;16.80;13.70;;;14.70;53.30;;;;;;5085665;28;20389;-55
2021/03/08 08:50:02;;;;;;;18.30;13.50;;;14.80;52.60;;;;;;5071100;28;20423;-55
2021/03/08 08:53:01;;;;;;;20.67;14.83;;;14.40;52.50;;;;;;5073575;28;20422;-55
2021/03/08 08:55:36;;;;;;;21.10;14.43;;;14.90;52.30;;;;;;5058322;28;20414;-54
2021/03/08 08:58:24;;;;;;;19.73;14.43;;;14.60;51.40;;;;;;5060504;28;20860;-55
2021/03/08 09:01:12;;;;;;;21.10;14.60;;;14.20;52.60;;;;;;5091610;28;20401;-55
2021/03/08 09:04:00;;;;;;;19.85;14.63;;;14.40;52.90;;;;;;5066900;28;20458;-55
2021/03/08 09:06:52;;;;;;;18.90;13.97;;;14.30;52.70;;;;;;5084918;28;20392;-55
2021/03/08 09:09:18;;;;;;;19.77;14.30;;;14.50;52.30;;;;;;5086232;28;21005;-54
2021/03/08 09:11:57;;;;;;;17.90;13.60;;;14.30;52.00;;;;;;5077860;28;20419;-55
2021/03/08 09:14:37;;;;;;;18.77;13.40;;;14.70;51.50;;;;;;5088749;28;20490;-55
2021/03/08 09:17:07;;;;;;;18.60;13.10;;;15.30;51.00;;;;;;5089282;28;20406;-55
2021/03/08 09:19:33;;;;;;;19.80;12.85;;;15.40;50.00;;;;;;5091983;28;20860;-55
2021/03/08 09:22:20;;;;;;;17.67;12.63;;;15.90;48.50;;;;;;5074956;28;20529;-55
2021/03/08 09:24:56;;;;;;;18.75;12.82;;;16.60;47.30;;;;;;5090913;28;20951;-54
2021/03/08 09:27:24;;;;;;;17.60;12.10;;;16.30;47.10;;;;;;5090309;28;20398;-54
2021/03/08 09:29:50;;;;;;;18.83;13.75;;;15.60;47.90;;;;;;5090719;28;20378;-55
2021/03/08 09:32:19;;;;;;;18.70;13.60;;;16.00;47.50;;;;;;5059349;28;20415;-55
2021/03/08 09:34:45;;;;;;;17.70;13.10;;;16.40;47.10;;;;;;5090592;28;20855;-54
2021/03/08 09:37:12;;;;;;;17.27;13.50;;;17.50;45.90;;;;;;5087687;28;20448;-55
2021/03/08 09:40:08;;;;;;;17.25;13.40;;;17.40;45.90;;;;;;5089485;28;20395;-55
2021/03/08 09:42:38;;;;;;;18.30;12.30;;;17.40;45.50;;;;;;5057391;28;20392;-54
2021/03/08 09:45:37;;;;;;;16.98;12.85;;;16.60;45.20;;;;;;5081765;28;20395;-54
2021/03/08 09:48:04;;;;;;;17.98;12.07;;;16.20;44.80;;;;;;5053856;28;20413;-54
2021/03/08 09:50:35;;;;;;;16.77;12.67;;;15.90;45.00;;;;;;5082664;28;20441;-54
2021/03/08 09:53:01;;;;;;;16.77;12.00;;;16.10;45.20;;;;;;5078039;28;20600;-54
2021/03/08 09:55:33;;;;;;;16.58;11.95;;;16.70;44.70;;;;;;5080361;28;20392;-55
2021/03/08 09:58:15;;;;;;;17.30;12.10;;;16.50;43.70;;;;;;5081495;28;20427;-55
2021/03/08 10:00:41;;;;;;;14.20;11.13;;;17.80;42.90;;;;;;5071383;28;20425;-54
2021/03/08 10:03:08;;;;;;;14.00;10.13;;;17.20;42.50;;;;;;5077761;28;20394;-54
2021/03/08 10:05:54;;;;;;;17.45;11.50;;;16.30;43.00;;;;;;5083611;28;20374;-54
2021/03/08 10:08:28;;;;;;;17.85;11.90;;;15.60;43.80;;;;;;5077966;28;20398;-54
2021/03/08 10:10:54;;;;;;;16.45;10.73;;;15.70;44.30;;;;;;5089433;28;20378;-54
2021/03/08 10:13:21;;;;;;;15.57;10.90;;;14.00;43.80;;;;;;5085259;28;20394;-54
2021/03/08 10:15:55;;;;;;;14.80;10.68;;;15.10;45.40;;;;;;5075073;28;20809;-54
2021/03/08 10:18:29;;;;;;;17.08;12.05;;;15.80;44.20;;;;;;5086942;28;20411;-54
2021/03/08 10:20:55;;;;;;;14.40;10.50;;;16.50;43.80;;;;;;5086379;28;20394;-54
2021/03/08 10:23:29;;;;;;;15.30;10.77;;;16.40;43.20;;;;;;5089596;28;20402;-54
2021/03/08 10:26:13;;;;;;;16.95;11.00;;;15.90;43.40;;;;;;5082607;28;20488;-55
2021/03/08 10:28:51;;;;;;;14.55;10.23;;;15.60;44.00;;;;;;5083086;28;20485;-55
2021/03/08 10:31:28;;;;;;;14.70;10.27;;;15.90;43.30;;;;;;5077904;28;20828;-55
2021/03/08 10:34:03;;;;;;;13.50;8.90;;;15.40;43.30;;;;;;5088169;28;20913;-54
2021/03/08 10:36:35;;;;;;;13.77;9.20;;;15.70;42.70;;;;;;5070795;28;20434;-54
2021/03/08 10:39:05;;;;;;;15.20;9.63;;;15.60;43.20;;;;;;5079799;28;20393;-54
2021/03/08 10:41:31;;;;;;;15.40;9.52;;;15.40;43.60;;;;;;5090028;28;20374;-55
2021/03/08 10:44:00;;;;;;;14.07;8.97;;;15.70;43.00;;;;;;5088868;28;20397;-54
2021/03/08 10:46:36;;;;;;;15.23;10.45;;;15.40;43.30;;;;;;5090772;28;20458;-54
2021/03/08 10:49:08;;;;;;;15.07;10.00;;;15.60;43.70;;;;;;5088736;28;20396;-55
2021/03/08 10:51:35;;;;;;;11.73;8.90;;;15.60;43.50;;;;;;5090848;28;20382;-54
2021/03/08 10:54:13;;;;;;;13.63;9.00;;;16.40;42.70;;;;;;5070791;28;20875;-54
2021/03/08 10:56:40;;;;;;;14.80;10.20;;;16.90;41.50;;;;;;5089078;28;20899;-52
2021/03/08 10:59:26;;;;;;;14.45;9.90;;;16.70;42.00;;;;;;5078432;28;20477;-55
2021/03/08 11:02:06;;;;;;;12.80;9.17;;;15.50;42.00;;;;;;5084285;28;20397;-54
2021/03/08 11:04:32;;;;;;;13.97;9.30;;;15.20;43.50;;;;;;5083205;28;20409;-55
2021/03/08 11:06:58;;;;;;;14.48;9.60;;;15.40;42.70;;;;;;5080451;28;20554;-54
2021/03/08 11:09:28;;;;;;;13.07;8.47;;;15.80;41.70;;;;;;5088233;28;20390;-53
2021/03/08 11:11:54;;;;;;;17.88;9.32;;;16.20;41.50;;;;;;5068984;28;20886;-53
2021/03/08 11:14:20;;;;;;;13.73;8.30;;;15.30;42.20;;;;;;5080763;28;20374;-55
2021/03/08 11:16:51;;;;;;;13.02;9.02;;;15.10;42.70;;;;;;5080531;28;20404;-53
2021/03/08 11:19:18;;;;;;;14.23;8.90;;;14.70;42.80;;;;;;5081497;28;20621;-53
2021/03/08 11:21:45;;;;;;;15.32;10.20;;;14.50;43.10;;;;;;5085004;28;20405;-53
2021/03/08 11:24:21;;;;;;;14.57;8.85;;;14.80;43.20;;;;;;5077069;28;20382;-53
2021/03/08 11:27:06;;;;;;;14.52;9.35;;;15.30;42.70;;;;;;5081913;28;20413;-53
2021/03/08 11:29:31;;;;;;;13.05;9.00;;;15.20;43.00;;;;;;5079150;28;20775;-54
2021/03/08 11:31:57;;;;;;;13.80;9.87;;;15.10;43.30;;;;;;5086129;28;20402;-54
2021/03/08 11:34:37;;;;;;;13.27;8.90;;;14.50;43.70;;;;;;5081692;28;20389;-54
2021/03/08 11:37:14;;;;;;;14.52;9.80;;;13.80;43.90;;;;;;5083630;28;20417;-54
2021/03/08 11:39:41;;;;;;;15.50;9.85;;;13.50;43.70;;;;;;5084959;28;20484;-53
2021/03/08 11:42:08;;;;;;;14.18;8.98;;;13.00;44.60;;;;;;5084728;28;20402;-54
2021/03/08 11:44:34;;;;;;;14.35;9.40;;;11.90;46.10;;;;;;5086580;28;20397;-53
2021/03/08 11:47:00;;;;;;;14.17;9.00;;;11.80;46.50;;;;;;5073972;28;20734;-54
2021/03/08 11:49:26;;;;;;;15.38;9.50;;;11.50;46.70;;;;;;5079312;28;20800;-53
2021/03/08 11:51:52;;;;;;;14.23;8.55;;;11.30;47.30;;;;;;5080366;28;20522;-54
2021/03/08 11:54:17;;;;;;;15.45;9.13;;;11.20;47.70;;;;;;5061730;28;21001;-54
2021/03/08 11:56:43;;;;;;;14.20;8.90;;;11.30;46.70;;;;;;5084924;28;20594;-53
2021/03/08 11:59:10;;;;;;;13.75;8.82;;;11.70;48.00;;;;;;5081930;28;20416;-54
2021/03/08 12:01:35;;;;;;;15.85;10.00;;;11.60;48.20;;;;;;5086197;28;20800;-53
2021/03/08 12:04:01;;;;;;;15.48;9.90;;;11.30;48.70;;;;;;5080570;28;20450;-53
2021/03/08 12:06:27;;;;;;;15.38;9.10;;;11.00;49.10;;;;;;5083991;28;20525;-53
2021/03/08 12:08:53;;;;;;;16.85;9.50;;;11.10;49.50;;;;;;5072918;28;20780;-54
2021/03/08 12:11:18;;;;;;;13.03;8.90;;;11.10;49.10;;;;;;5070251;28;20493;-53
2021/03/08 12:13:44;;;;;;;13.80;8.90;;;11.10;47.80;;;;;;5069084;28;20419;-53
2021/03/08 12:16:10;;;;;;;13.20;8.27;;;11.10;47.30;;;;;;5064991;28;20401;-53
2021/03/08 12:18:36;;;;;;;15.80;8.90;;;11.30;46.60;;;;;;5083808;28;20462;-53
2021/03/08 12:21:03;;;;;;;14.77;8.50;;;11.10;45.50;;;;;;5068875;28;20895;-53
2021/03/08 12:23:28;;;;;;;13.40;8.38;;;10.90;46.90;;;;;;5079776;28;20454;-55
2021/03/08 12:25:54;;;;;;;14.23;9.05;;;11.10;47.50;;;;;;5082625;28;20401;-55
2021/03/08 12:28:20;;;;;;;14.97;9.60;;;11.20;47.00;;;;;;5072889;28;20426;-54
2021/03/08 12:30:45;;;;;;;15.38;8.77;;;11.20;46.80;;;;;;5080737;28;20883;-54
2021/03/08 12:33:11;;;;;;;14.80;8.93;;;11.00;47.80;;;;;;5089121;28;20412;-55
2021/03/08 12:35:37;;;;;;;16.95;9.98;;;11.10;47.60;;;;;;5085113;28;20453;-55
2021/03/08 12:38:03;;;;;;;14.40;9.40;;;11.40;47.20;;;;;;5089074;28;20410;-54
2021/03/08 12:40:28;;;;;;;14.35;9.40;;;11.20;46.60;;;;;;5080906;28;20468;-54
2021/03/08 12:42:54;;;;;;;13.87;9.03;;;11.00;46.90;;;;;;5086140;28;20902;-54
2021/03/08 12:45:20;;;;;;;14.85;8.55;;;10.90;45.70;;;;;;5090244;28;20374;-55